Time;durP1;ratioP1;P1;durP2;ratioP2;P2;SDS_P1;SDS_P2;PMS_P1;PMS_P2;Temp;Humidity;BMP_temperature;BMP_pressure;BME280_temperature;BME280_humidity;BME280_pressure;Samples;Min_cycle;Max_cycle;Signal;HPM_P1;HPM_P2
2022/10/20 00:01:56;;;;;;;3.97;2.30;;;8.00;99.90;;;;;;5039197;28;20048;-76
2022/10/20 00:04:22;;;;;;;3.78;2.00;;;8.10;99.90;;;;;;5061471;28;20045;-76
2022/10/20 00:06:47;;;;;;;4.68;2.63;;;8.00;99.90;;;;;;5066865;28;20036;-75
2022/10/20 00:09:13;;;;;;;3.10;2.00;;;8.00;99.90;;;;;;5073583;28;20403;-75
2022/10/20 00:11:39;;;;;;;4.47;2.90;;;7.90;99.90;;;;;;5058123;28;20076;-76
2022/10/20 00:14:05;;;;;;;4.07;2.03;;;8.00;99.90;;;;;;5065869;28;20506;-76
2022/10/20 00:16:35;;;;;;;6.88;2.78;;;8.00;99.90;;;;;;5055362;28;20048;-75
2022/10/20 00:19:01;;;;;;;5.10;2.35;;;7.90;99.90;;;;;;5071708;28;20083;-75
2022/10/20 00:21:28;;;;;;;2.60;1.80;;;7.90;99.90;;;;;;5071973;28;20056;-76
2022/10/20 00:23:54;;;;;;;3.13;1.98;;;8.00;99.90;;;;;;5065246;28;20083;-76
2022/10/20 00:26:22;;;;;;;2.97;1.90;;;7.80;99.90;;;;;;5052006;28;20076;-76
2022/10/20 00:28:49;;;;;;;3.28;2.03;;;7.90;99.90;;;;;;5051548;28;20106;-75
2022/10/20 00:31:15;;;;;;;3.15;1.90;;;7.90;99.90;;;;;;5068359;28;20040;-76
2022/10/20 00:33:41;;;;;;;4.32;2.85;;;7.80;99.90;;;;;;5071932;28;20394;-75
2022/10/20 00:36:11;;;;;;;5.05;2.60;;;7.70;99.90;;;;;;5071578;28;20127;-76
2022/10/20 00:38:36;;;;;;;3.05;2.20;;;7.70;99.90;;;;;;5071623;28;20113;-76
2022/10/20 00:41:03;;;;;;;3.20;2.08;;;7.70;99.90;;;;;;5054855;28;20040;-75
2022/10/20 00:43:55;;;;;;;2.78;1.92;;;7.70;99.90;;;;;;5068870;28;20560;-75
2022/10/20 00:46:29;;;;;;;4.00;2.42;;;7.80;99.90;;;;;;5051591;28;20124;-75
2022/10/20 00:48:59;;;;;;;3.80;2.35;;;7.70;99.90;;;;;;5051375;28;20119;-75
2022/10/20 00:51:28;;;;;;;3.67;2.08;;;7.60;99.90;;;;;;5056164;28;20479;-76
2022/10/20 00:54:02;;;;;;;5.57;2.53;;;7.70;99.90;;;;;;5070003;28;20040;-75
2022/10/20 00:56:28;;;;;;;2.28;1.90;;;7.60;99.90;;;;;;5071313;28;20161;-75
2022/10/20 00:58:54;;;;;;;3.78;2.42;;;7.60;99.90;;;;;;5071367;28;20044;-76
2022/10/20 01:01:20;;;;;;;2.53;1.88;;;7.70;99.90;;;;;;5071534;28;20041;-76
2022/10/20 01:03:48;;;;;;;3.65;2.50;;;7.50;99.90;;;;;;5054204;28;20507;-76
2022/10/20 01:06:16;;;;;;;2.70;2.13;;;7.60;99.90;;;;;;5051271;28;20037;-75
2022/10/20 01:08:42;;;;;;;4.45;2.75;;;7.60;99.90;;;;;;5051177;28;20400;-75
2022/10/20 01:11:11;;;;;;;3.65;2.33;;;7.60;99.90;;;;;;5050976;28;20052;-75
2022/10/20 01:14:01;;;;;;;2.80;2.15;;;7.50;99.90;;;;;;5051195;28;20044;-75
2022/10/20 01:16:52;;;;;;;3.67;1.92;;;7.50;99.90;;;;;;5050660;28;20049;-75
2022/10/20 01:19:35;;;;;;;3.55;2.15;;;7.60;99.90;;;;;;5050602;28;20048;-75
2022/10/20 01:22:04;;;;;;;2.03;1.50;;;7.50;99.90;;;;;;5050672;28;20033;-76
2022/10/20 01:24:40;;;;;;;3.67;2.30;;;7.60;99.90;;;;;;5051018;28;20045;-76
2022/10/20 01:27:27;;;;;;;4.43;2.40;;;7.50;99.90;;;;;;5050807;28;20373;-76
2022/10/20 01:30:22;;;;;;;5.05;2.53;;;7.40;99.90;;;;;;5050936;28;20072;-76
2022/10/20 01:33:17;;;;;;;5.43;2.10;;;7.40;99.90;;;;;;5042661;28;20057;-76
2022/10/20 01:36:12;;;;;;;2.95;2.13;;;7.40;99.90;;;;;;5050880;28;20127;-75
2022/10/20 01:38:53;;;;;;;3.47;2.35;;;7.50;99.90;;;;;;5050454;28;20083;-76
2022/10/20 01:41:57;;;;;;;5.18;2.40;;;7.50;99.90;;;;;;5054732;28;20051;-76
2022/10/20 01:44:25;;;;;;;3.30;2.30;;;7.50;99.90;;;;;;5032313;28;20048;-76
2022/10/20 01:46:52;;;;;;;3.05;2.17;;;7.40;99.90;;;;;;5062808;28;20056;-75
2022/10/20 01:49:18;;;;;;;;;;;7.40;99.90;;;;;;5051075;28;20037;-75
2022/10/20 01:51:43;;;;;;;3.78;2.40;;;7.40;99.90;;;;;;5050563;28;20287;-75
2022/10/20 01:54:20;;;;;;;2.40;2.13;;;7.40;99.90;;;;;;5051882;28;20037;-76
2022/10/20 01:57:13;;;;;;;3.00;2.00;;;7.40;99.90;;;;;;5050512;28;20094;-76
2022/10/20 02:00:06;;;;;;;3.40;2.28;;;7.30;99.90;;;;;;5050248;28;20037;-76
2022/10/20 02:02:53;;;;;;;4.95;2.40;;;7.30;99.90;;;;;;5048998;28;20049;-75
2022/10/20 02:05:51;;;;;;;6.28;2.63;;;7.40;99.90;;;;;;5049925;28;20052;-76
2022/10/20 02:08:43;;;;;;;4.80;2.50;;;7.40;99.90;;;;;;5050152;28;20076;-76
2022/10/20 02:11:34;;;;;;;3.60;2.50;;;7.20;99.90;;;;;;5050113;28;20441;-76
2022/10/20 02:14:02;;;;;;;6.57;2.90;;;7.10;99.90;;;;;;5043083;28;20060;-76
2022/10/20 02:16:35;;;;;;;4.25;2.50;;;7.20;99.90;;;;;;5050811;28;20041;-76
2022/10/20 02:19:03;;;;;;;5.20;2.72;;;7.10;99.90;;;;;;5049528;28;20579;-76
2022/10/20 02:21:30;;;;;;;3.28;2.10;;;7.30;99.90;;;;;;5049445;28;20049;-76
2022/10/20 02:23:59;;;;;;;;;;;7.10;99.90;;;;;;5050432;28;20049;-76
2022/10/20 02:26:25;;;;;;;3.17;2.03;;;7.20;99.90;;;;;;5067977;28;19928;-76
2022/10/20 02:28:57;;;;;;;5.40;2.95;;;7.20;99.90;;;;;;5069546;28;20113;-75
2022/10/20 02:31:23;;;;;;;3.65;2.30;;;7.20;99.90;;;;;;5067883;28;21108;-76
2022/10/20 02:33:50;;;;;;;3.35;2.15;;;7.10;99.90;;;;;;5069725;28;20044;-76
2022/10/20 02:36:18;;;;;;;3.22;1.88;;;7.00;99.90;;;;;;5069807;28;20446;-76
2022/10/20 02:38:44;;;;;;;4.75;2.92;;;7.00;99.90;;;;;;5042771;28;20111;-76
2022/10/20 02:41:10;;;;;;;3.63;2.20;;;7.00;99.90;;;;;;5063095;28;20492;-76
2022/10/20 02:43:36;;;;;;;3.65;2.28;;;7.00;99.90;;;;;;5069520;28;20044;-75
2022/10/20 02:46:01;;;;;;;3.25;2.20;;;7.10;99.90;;;;;;5068771;28;20033;-76
2022/10/20 02:48:27;;;;;;;4.45;3.03;;;6.90;99.90;;;;;;5051619;28;20045;-76
2022/10/20 02:50:53;;;;;;;5.22;2.72;;;6.90;99.90;;;;;;5049646;28;20053;-75
2022/10/20 02:53:18;;;;;;;3.33;2.63;;;7.10;99.90;;;;;;5049429;28;20045;-75
2022/10/20 02:55:44;;;;;;;4.07;2.40;;;6.90;99.90;;;;;;5049509;28;20060;-76
2022/10/20 02:58:10;;;;;;;4.55;2.30;;;6.90;99.90;;;;;;5049272;28;20045;-76
2022/10/20 03:00:35;;;;;;;2.40;1.90;;;6.80;99.90;;;;;;5059379;28;20055;-76
2022/10/20 03:03:01;;;;;;;5.00;2.90;;;6.80;99.90;;;;;;5085928;28;20499;-75
2022/10/20 03:05:28;;;;;;;3.97;2.80;;;6.90;99.90;;;;;;5085849;28;20062;-76
2022/10/20 03:07:53;;;;;;;2.80;2.17;;;7.00;99.90;;;;;;5052667;28;20514;-75
2022/10/20 03:10:19;;;;;;;3.47;2.15;;;7.00;99.90;;;;;;5068886;28;20080;-75
2022/10/20 03:12:45;;;;;;;3.75;2.50;;;6.70;99.90;;;;;;5069125;28;20036;-76
2022/10/20 03:15:11;;;;;;;3.88;2.45;;;6.90;99.90;;;;;;5054667;28;20118;-76
2022/10/20 03:17:37;;;;;;;5.03;2.55;;;6.90;99.90;;;;;;5048953;28;20052;-76
2022/10/20 03:20:04;;;;;;;3.75;2.35;;;6.70;99.90;;;;;;5031738;28;20057;-76
2022/10/20 03:22:29;;;;;;;3.20;2.20;;;6.70;99.90;;;;;;5063854;28;20379;-76
2022/10/20 03:24:55;;;;;;;4.32;2.20;;;6.80;99.90;;;;;;5052442;28;20041;-76
2022/10/20 03:27:21;;;;;;;3.28;2.20;;;6.90;99.90;;;;;;5084992;28;20059;-76
2022/10/20 03:29:46;;;;;;;4.43;2.60;;;6.70;99.90;;;;;;5049193;28;20114;-76
2022/10/20 03:32:12;;;;;;;4.68;2.50;;;6.80;99.90;;;;;;5048710;28;20081;-75
2022/10/20 03:34:38;;;;;;;3.92;2.58;;;6.80;99.90;;;;;;5049251;28;20088;-76
2022/10/20 03:37:03;;;;;;;3.00;2.38;;;6.60;99.90;;;;;;5048904;28;20048;-76
2022/10/20 03:39:29;;;;;;;4.53;2.58;;;6.60;99.90;;;;;;5057177;28;20071;-73
2022/10/20 03:41:56;;;;;;;3.53;2.65;;;6.60;99.90;;;;;;5068932;28;20036;-72
2022/10/20 03:44:23;;;;;;;3.63;3.05;;;6.60;99.90;;;;;;5081026;28;20051;-72
2022/10/20 03:46:48;;;;;;;;;;;6.70;99.90;;;;;;5052575;28;20497;-72
2022/10/20 03:49:14;;;;;;;4.15;2.97;;;6.70;99.90;;;;;;5057230;28;19932;-72
2022/10/20 03:51:40;;;;;;;4.88;3.45;;;6.70;99.90;;;;;;5048505;28;20072;-72
2022/10/20 03:54:05;;;;;;;5.30;3.60;;;6.60;99.90;;;;;;5061959;28;20040;-76
2022/10/20 03:56:31;;;;;;;4.72;3.17;;;6.70;99.90;;;;;;5067623;28;20040;-75
2022/10/20 03:58:56;;;;;;;4.05;3.30;;;6.80;99.90;;;;;;5045477;28;20509;-75
2022/10/20 04:01:29;;;;;;;4.80;3.65;;;6.80;99.90;;;;;;5068800;28;20504;-77
2022/10/20 04:03:54;;;;;;;6.63;4.63;;;6.60;99.90;;;;;;5068768;28;20048;-76
2022/10/20 04:06:20;;;;;;;3.70;3.35;;;6.70;99.90;;;;;;5075607;28;20044;-77
2022/10/20 04:08:46;;;;;;;5.40;3.70;;;6.80;99.90;;;;;;5055037;28;20060;-76
2022/10/20 04:11:12;;;;;;;6.28;4.20;;;6.60;99.90;;;;;;5104863;28;20048;-76
2022/10/20 04:13:37;;;;;;;5.45;3.67;;;6.60;99.90;;;;;;5087464;28;20044;-76
2022/10/20 04:16:03;;;;;;;5.22;3.90;;;6.80;99.90;;;;;;5069704;28;20047;-77
2022/10/20 04:18:30;;;;;;;4.13;3.40;;;6.80;99.90;;;;;;5067909;28;20059;-72
2022/10/20 04:20:55;;;;;;;5.38;3.83;;;6.60;99.90;;;;;;5050874;28;20048;-76
2022/10/20 04:23:21;;;;;;;4.55;3.70;;;6.80;99.90;;;;;;5068268;28;20040;-72
2022/10/20 04:25:47;;;;;;;5.78;3.90;;;6.60;99.90;;;;;;5050766;28;20181;-77
2022/10/20 04:28:18;;;;;;;5.63;3.85;;;6.60;99.90;;;;;;5071053;28;20391;-77
2022/10/20 04:30:44;;;;;;;5.85;4.00;;;6.60;99.90;;;;;;5067644;28;20044;-72
2022/10/20 04:33:11;;;;;;;6.30;4.20;;;6.60;99.90;;;;;;5100432;28;20048;-71
2022/10/20 04:35:37;;;;;;;5.07;4.50;;;6.50;99.90;;;;;;5055329;28;20118;-75
2022/10/20 04:38:03;;;;;;;5.80;4.57;;;6.50;99.90;;;;;;5026309;28;20084;-73
2022/10/20 04:40:28;;;;;;;5.85;4.55;;;6.50;99.90;;;;;;5048524;28;20483;-76
2022/10/20 04:42:54;;;;;;;6.28;4.40;;;6.60;99.90;;;;;;5072096;28;20040;-72
2022/10/20 04:45:20;;;;;;;6.10;4.22;;;6.70;99.90;;;;;;5070865;28;20182;-76
2022/10/20 04:47:45;;;;;;;5.25;4.32;;;6.50;99.90;;;;;;5071516;28;20036;-71
2022/10/20 04:50:11;;;;;;;6.10;4.68;;;6.50;99.90;;;;;;5076010;28;20044;-76
2022/10/20 04:52:37;;;;;;;7.88;5.15;;;6.70;99.90;;;;;;5071611;28;20048;-75
2022/10/20 04:55:03;;;;;;;4.82;3.80;;;6.60;99.90;;;;;;5070728;28;20109;-76
2022/10/20 04:57:28;;;;;;;4.95;3.95;;;6.50;99.90;;;;;;5066669;28;20352;-71
2022/10/20 04:59:54;;;;;;;3.75;3.30;;;6.40;99.90;;;;;;5038373;28;20052;-73
2022/10/20 05:02:19;;;;;;;5.50;4.20;;;6.50;99.90;;;;;;5051954;28;20041;-72
2022/10/20 05:04:45;;;;;;;5.95;4.00;;;6.50;99.90;;;;;;5051440;28;20226;-72
2022/10/20 05:07:11;;;;;;;6.57;4.25;;;6.60;99.90;;;;;;5065969;28;20048;-73
2022/10/20 05:09:36;;;;;;;6.72;4.55;;;6.40;99.90;;;;;;5065281;28;20131;-72
2022/10/20 05:12:02;;;;;;;4.60;3.77;;;6.50;99.90;;;;;;5070070;28;20052;-72
2022/10/20 05:14:28;;;;;;;4.22;3.80;;;6.30;99.90;;;;;;5051925;28;20306;-72
2022/10/20 05:16:54;;;;;;;4.82;3.80;;;6.50;99.90;;;;;;5059492;28;20371;-72
2022/10/20 05:19:19;;;;;;;5.10;4.43;;;6.50;99.90;;;;;;5035490;28;20139;-72
2022/10/20 05:21:45;;;;;;;4.55;4.13;;;6.40;99.90;;;;;;5048319;28;20048;-73
2022/10/20 05:24:14;;;;;;;5.70;4.57;;;6.60;99.90;;;;;;5065802;28;20038;-72
2022/10/20 05:26:39;;;;;;;5.95;4.63;;;6.40;99.90;;;;;;5065992;28;20047;-73
2022/10/20 05:29:07;;;;;;;6.40;4.88;;;6.30;99.90;;;;;;5069667;28;20044;-72
2022/10/20 05:31:41;;;;;;;6.15;4.45;;;6.50;99.90;;;;;;5062353;28;20139;-72
2022/10/20 05:34:08;;;;;;;5.47;4.53;;;6.50;99.90;;;;;;5076466;28;20095;-71
2022/10/20 05:36:34;;;;;;;5.10;4.60;;;6.40;99.90;;;;;;5064978;28;20037;-72
2022/10/20 05:39:00;;;;;;;5.90;4.47;;;6.30;99.90;;;;;;5066560;28;20051;-72
2022/10/20 05:41:31;;;;;;;5.93;4.65;;;6.50;99.90;;;;;;5048890;28;20052;-78
2022/10/20 05:43:59;;;;;;;6.53;4.80;;;6.30;99.90;;;;;;5054695;28;20399;-77
2022/10/20 05:46:27;;;;;;;7.47;5.55;;;6.30;99.90;;;;;;5048410;28;20073;-75
2022/10/20 05:48:56;;;;;;;5.78;4.80;;;6.50;99.90;;;;;;5068289;28;20047;-76
2022/10/20 05:51:26;;;;;;;6.30;5.00;;;6.40;99.90;;;;;;5085084;28;20059;-77
2022/10/20 05:53:54;;;;;;;6.28;5.25;;;6.50;99.90;;;;;;5068754;28;20916;-73
2022/10/20 05:56:21;;;;;;;8.15;5.78;;;6.30;99.90;;;;;;5043308;28;20044;-72
2022/10/20 05:58:47;;;;;;;7.63;6.05;;;6.30;99.90;;;;;;5037900;28;20060;-71
2022/10/20 06:01:19;;;;;;;8.15;5.43;;;6.30;99.90;;;;;;5059029;28;20182;-72
2022/10/20 06:03:49;;;;;;;7.20;5.82;;;6.30;99.90;;;;;;5050137;28;20133;-72
2022/10/20 06:06:16;;;;;;;8.90;7.05;;;6.30;99.90;;;;;;5066355;28;20090;-72
2022/10/20 06:08:41;;;;;;;7.38;5.40;;;6.30;99.90;;;;;;5066728;28;20116;-72
2022/10/20 06:11:10;;;;;;;6.83;5.10;;;6.30;99.90;;;;;;5048655;28;20127;-73
2022/10/20 06:13:35;;;;;;;7.65;5.30;;;6.30;99.90;;;;;;5065359;28;20505;-72
2022/10/20 06:16:02;;;;;;;7.47;6.18;;;6.40;99.90;;;;;;5069865;28;20126;-73
2022/10/20 06:18:28;;;;;;;7.25;5.80;;;6.30;99.90;;;;;;5068911;28;20084;-73
2022/10/20 06:21:02;;;;;;;7.13;5.40;;;6.50;99.90;;;;;;5069569;28;20090;-72
2022/10/20 06:23:28;;;;;;;6.03;5.43;;;6.50;99.90;;;;;;5069559;28;20048;-73
2022/10/20 06:25:54;;;;;;;6.07;5.22;;;6.40;99.90;;;;;;5069482;28;20036;-72
2022/10/20 06:28:20;;;;;;;8.27;6.47;;;6.40;99.90;;;;;;5052998;28;20090;-73
2022/10/20 06:30:46;;;;;;;8.00;5.82;;;6.30;99.90;;;;;;5069263;28;20144;-72
2022/10/20 06:33:13;;;;;;;;;;;6.50;99.90;;;;;;5070002;28;20055;-72
2022/10/20 06:35:39;;;;;;;9.05;6.72;;;6.30;99.90;;;;;;5052645;28;19916;-72
2022/10/20 06:38:05;;;;;;;8.35;6.38;;;6.40;99.90;;;;;;5069316;28;20059;-72
2022/10/20 06:40:32;;;;;;;7.53;6.07;;;6.50;99.90;;;;;;5052461;28;20079;-72
2022/10/20 06:42:57;;;;;;;8.75;6.55;;;6.60;99.90;;;;;;5069265;28;20098;-72
2022/10/20 06:45:23;;;;;;;6.97;5.97;;;6.40;99.90;;;;;;5069111;28;20036;-73
2022/10/20 06:47:49;;;;;;;6.90;6.00;;;6.60;99.90;;;;;;5069181;28;20319;-73
2022/10/20 06:50:15;;;;;;;6.88;6.03;;;6.50;99.90;;;;;;5052172;28;20085;-72
2022/10/20 06:52:40;;;;;;;8.52;6.13;;;6.60;99.90;;;;;;5086112;28;20044;-72
2022/10/20 06:55:06;;;;;;;6.32;5.10;;;6.70;99.90;;;;;;5052454;28;20494;-72
2022/10/20 06:57:32;;;;;;;8.68;6.88;;;6.70;99.90;;;;;;5068813;28;20037;-72
2022/10/20 06:59:58;;;;;;;6.97;6.18;;;6.60;99.90;;;;;;5052271;28;20040;-72
2022/10/20 07:02:23;;;;;;;8.30;6.00;;;6.70;99.90;;;;;;5052081;28;20041;-72
2022/10/20 07:04:50;;;;;;;7.50;5.80;;;6.80;99.90;;;;;;5065961;28;20102;-73
2022/10/20 07:07:16;;;;;;;6.97;5.50;;;6.60;99.90;;;;;;5066735;28;20399;-71
2022/10/20 07:09:42;;;;;;;;;;;6.80;99.90;;;;;;5048910;28;20054;-72
2022/10/20 07:12:07;;;;;;;6.72;5.35;;;6.60;99.90;;;;;;5052252;28;19916;-72
2022/10/20 07:14:36;;;;;;;5.75;5.15;;;6.80;99.90;;;;;;5062750;28;20460;-72
2022/10/20 07:17:02;;;;;;;7.15;5.47;;;6.70;99.90;;;;;;5067603;28;20381;-73
2022/10/20 07:19:31;;;;;;;7.20;6.50;;;6.90;99.90;;;;;;5070661;28;20048;-72
2022/10/20 07:21:56;;;;;;;6.15;5.55;;;6.80;99.90;;;;;;5067744;28;20453;-72
2022/10/20 07:24:22;;;;;;;5.78;5.15;;;6.80;99.90;;;;;;5066705;28;20139;-73
2022/10/20 07:26:48;;;;;;;7.68;6.28;;;7.00;99.90;;;;;;5063826;28;20483;-72
2022/10/20 07:29:14;;;;;;;9.25;6.70;;;6.90;99.90;;;;;;5068306;28;20372;-72
2022/10/20 07:31:42;;;;;;;5.47;4.90;;;6.90;99.90;;;;;;5068676;28;20048;-72
2022/10/20 07:34:09;;;;;;;6.43;5.57;;;6.90;99.90;;;;;;5050497;28;20496;-72
2022/10/20 07:36:36;;;;;;;7.30;5.50;;;6.90;99.90;;;;;;5068209;28;20049;-72
2022/10/20 07:39:04;;;;;;;6.15;5.20;;;7.00;99.90;;;;;;5068661;28;20040;-73
2022/10/20 07:41:30;;;;;;;5.80;4.90;;;7.00;99.90;;;;;;5068139;28;20032;-72
2022/10/20 07:43:56;;;;;;;6.55;5.45;;;7.20;99.90;;;;;;5068408;28;20051;-72
2022/10/20 07:46:23;;;;;;;7.68;5.47;;;7.00;99.90;;;;;;5051492;28;20033;-72
2022/10/20 07:48:49;;;;;;;9.23;7.00;;;7.20;99.90;;;;;;5068687;28;20101;-72
2022/10/20 07:51:21;;;;;;;6.43;5.40;;;7.10;99.90;;;;;;5067419;28;20483;-72
2022/10/20 07:54:11;;;;;;;5.75;4.70;;;7.20;99.90;;;;;;5067991;28;20055;-72
2022/10/20 07:56:39;;;;;;;6.15;5.30;;;7.20;99.90;;;;;;5067636;28;20495;-72
2022/10/20 07:59:06;;;;;;;7.68;6.05;;;7.30;99.90;;;;;;5068007;28;20119;-72
2022/10/20 08:01:31;;;;;;;7.32;6.30;;;7.30;99.90;;;;;;5070342;28;20047;-72
2022/10/20 08:03:57;;;;;;;8.52;6.43;;;7.30;99.90;;;;;;5072013;28;20040;-73
2022/10/20 08:06:24;;;;;;;7.55;5.93;;;7.50;99.90;;;;;;5071786;28;20046;-72
2022/10/20 08:08:49;;;;;;;7.63;6.35;;;7.30;99.90;;;;;;5072299;28;20051;-72
2022/10/20 08:11:16;;;;;;;5.57;4.80;;;7.40;99.90;;;;;;5072209;28;20451;-72
2022/10/20 08:13:41;;;;;;;7.72;6.05;;;7.60;99.90;;;;;;5072013;28;20052;-72
2022/10/20 08:16:09;;;;;;;7.22;5.72;;;7.60;99.90;;;;;;5071799;28;20094;-72
2022/10/20 08:18:35;;;;;;;7.78;6.38;;;7.70;99.90;;;;;;5071419;28;20067;-72
2022/10/20 08:21:21;;;;;;;6.00;4.95;;;7.60;99.90;;;;;;5071627;28;20103;-72
2022/10/20 08:23:48;;;;;;;6.05;5.07;;;7.70;99.90;;;;;;5071510;28;20044;-72
2022/10/20 08:26:22;;;;;;;8.48;5.55;;;7.80;99.90;;;;;;5054888;28;20068;-72
2022/10/20 08:28:49;;;;;;;5.38;4.82;;;8.00;99.90;;;;;;5071896;28;20040;-73
2022/10/20 08:31:15;;;;;;;3.90;3.50;;;8.00;99.90;;;;;;5055104;28;20032;-72
2022/10/20 08:33:41;;;;;;;5.68;5.05;;;8.10;99.90;;;;;;5071854;28;20055;-72
2022/10/20 08:36:09;;;;;;;5.63;4.78;;;8.00;99.90;;;;;;5055028;28;20419;-72
2022/10/20 08:38:36;;;;;;;7.75;6.20;;;8.10;99.90;;;;;;5071383;28;20043;-72
2022/10/20 08:41:03;;;;;;;5.55;4.65;;;8.20;99.90;;;;;;5071725;28;20101;-72
2022/10/20 08:43:32;;;;;;;6.22;5.30;;;8.30;99.90;;;;;;5071938;28;20043;-79
2022/10/20 08:45:58;;;;;;;5.82;5.13;;;8.30;99.90;;;;;;5054844;28;20127;-78
2022/10/20 08:48:28;;;;;;;7.22;5.00;;;8.30;99.90;;;;;;5055736;28;20123;-79
2022/10/20 08:50:54;;;;;;;5.82;4.80;;;8.40;99.90;;;;;;5071854;28;20084;-81
2022/10/20 08:53:22;;;;;;;5.10;4.05;;;8.40;99.90;;;;;;5071840;28;20079;-79
2022/10/20 08:55:48;;;;;;;4.53;3.80;;;8.60;99.90;;;;;;5071619;28;20051;-78
2022/10/20 08:58:23;;;;;;;4.50;3.92;;;8.60;99.90;;;;;;5054472;28;20052;-78
2022/10/20 09:00:56;;;;;;;6.07;4.70;;;8.70;99.90;;;;;;5072614;28;20045;-78
2022/10/20 09:03:32;;;;;;;5.82;4.32;;;8.70;99.90;;;;;;5070784;28;20469;-78
2022/10/20 09:06:07;;;;;;;6.82;5.10;;;8.80;99.90;;;;;;5069167;28;20106;-78
2022/10/20 09:08:36;;;;;;;4.72;4.10;;;8.90;99.90;;;;;;5065370;28;20040;-78
2022/10/20 09:11:03;;;;;;;5.38;4.38;;;9.00;99.90;;;;;;5053283;28;20131;-78
2022/10/20 09:13:33;;;;;;;4.20;3.80;;;9.10;99.90;;;;;;5068207;28;20051;-78
2022/10/20 09:16:26;;;;;;;5.60;3.47;;;9.20;99.90;;;;;;5070516;28;20076;-79
2022/10/20 09:18:57;;;;;;;6.03;4.28;;;9.20;99.90;;;;;;5045634;28;20194;-79
2022/10/20 09:21:23;;;;;;;6.55;4.60;;;9.30;99.90;;;;;;5054305;28;20044;-78
2022/10/20 09:23:51;;;;;;;;;;;9.40;99.90;;;;;;5070855;28;20048;-79
2022/10/20 09:26:27;;;;;;;5.10;4.40;;;9.50;99.90;;;;;;5070408;28;19920;-78
2022/10/20 09:29:08;;;;;;;7.45;5.20;;;9.60;99.90;;;;;;5070244;28;20110;-78
2022/10/20 09:31:50;;;;;;;8.30;5.00;;;9.70;99.90;;;;;;5069913;28;20045;-80
2022/10/20 09:34:31;;;;;;;5.78;4.82;;;9.70;99.90;;;;;;5047462;28;20067;-78
2022/10/20 09:37:11;;;;;;;4.80;3.83;;;9.80;99.90;;;;;;5062413;28;20045;-79
2022/10/20 09:39:57;;;;;;;6.70;3.90;;;9.90;99.90;;;;;;5068082;28;20139;-78
2022/10/20 09:42:39;;;;;;;6.05;4.30;;;10.00;99.90;;;;;;5069722;28;20336;-79
2022/10/20 09:45:17;;;;;;;5.47;4.32;;;10.00;99.90;;;;;;5069788;28;20566;-78
2022/10/20 09:47:47;;;;;;;5.40;4.47;;;10.10;99.90;;;;;;5068510;28;20397;-78
2022/10/20 09:50:24;;;;;;;6.10;4.93;;;10.10;99.90;;;;;;5069114;28;20046;-73
2022/10/20 09:52:50;;;;;;;5.00;4.50;;;10.10;99.90;;;;;;5069069;28;20051;-74
2022/10/20 09:55:32;;;;;;;4.85;4.20;;;10.20;99.90;;;;;;5051988;28;20442;-73
2022/10/20 09:58:02;;;;;;;4.88;4.28;;;10.20;99.90;;;;;;5064769;28;20040;-72
2022/10/20 10:00:44;;;;;;;5.43;4.18;;;10.20;99.90;;;;;;5069154;28;20667;-72
2022/10/20 10:03:21;;;;;;;5.35;4.00;;;10.20;99.90;;;;;;5052591;28;20052;-73
2022/10/20 10:05:55;;;;;;;5.50;4.28;;;10.30;99.90;;;;;;5067965;28;20487;-73
2022/10/20 10:08:23;;;;;;;4.30;3.90;;;10.40;99.90;;;;;;5053527;28;20437;-72
2022/10/20 10:11:01;;;;;;;4.43;3.55;;;10.50;99.90;;;;;;5070003;28;20032;-73
2022/10/20 10:13:30;;;;;;;5.38;4.05;;;10.60;99.90;;;;;;5069772;28;20128;-72
2022/10/20 10:16:05;;;;;;;5.28;4.00;;;10.60;99.90;;;;;;5069544;28;20528;-72
2022/10/20 10:18:32;;;;;;;5.47;4.63;;;10.70;99.90;;;;;;5068913;28;20048;-73
2022/10/20 10:21:09;;;;;;;5.28;3.83;;;10.70;99.90;;;;;;5069491;28;20044;-72
2022/10/20 10:23:49;;;;;;;3.97;3.08;;;10.80;99.90;;;;;;5069067;28;20115;-73
2022/10/20 10:26:36;;;;;;;4.47;3.60;;;10.90;99.90;;;;;;5069590;28;20044;-72
2022/10/20 10:29:02;;;;;;;5.40;4.25;;;10.90;99.90;;;;;;5069770;28;20393;-73
2022/10/20 10:31:31;;;;;;;6.53;4.25;;;11.00;99.90;;;;;;5053002;28;20432;-72
2022/10/20 10:34:12;;;;;;;5.40;4.43;;;11.10;99.90;;;;;;5069586;28;20519;-72
2022/10/20 10:36:37;;;;;;;5.97;4.50;;;11.20;99.90;;;;;;5068215;28;20048;-72
2022/10/20 10:39:06;;;;;;;4.78;3.80;;;11.20;99.90;;;;;;5068880;28;20131;-72
2022/10/20 10:41:56;;;;;;;5.90;4.00;;;11.20;99.90;;;;;;5052291;28;20093;-72
2022/10/20 10:44:27;;;;;;;7.25;4.10;;;11.40;99.90;;;;;;5069117;28;20051;-73
2022/10/20 10:47:08;;;;;;;4.38;3.58;;;11.60;99.90;;;;;;5052361;28;20032;-72
2022/10/20 10:49:40;;;;;;;3.80;3.00;;;12.00;99.90;;;;;;5069149;28;20403;-73
2022/10/20 10:52:32;;;;;;;3.55;3.25;;;12.20;99.90;;;;;;5069358;28;20403;-72
2022/10/20 10:55:24;;;;;;;6.63;3.80;;;12.30;99.90;;;;;;5069165;28;20036;-75
2022/10/20 10:57:59;;;;;;;5.22;3.85;;;12.30;99.90;;;;;;5069115;28;20166;-72
2022/10/20 11:00:54;;;;;;;4.07;3.10;;;12.30;99.90;;;;;;5052110;28;20036;-72
2022/10/20 11:03:22;;;;;;;5.05;3.60;;;12.50;99.90;;;;;;5068776;28;20480;-72
2022/10/20 11:06:34;;;;;;;4.38;3.45;;;12.50;99.90;;;;;;5052022;28;20123;-72
2022/10/20 11:09:18;;;;;;;4.75;3.63;;;12.60;99.90;;;;;;5063285;28;20047;-72
2022/10/20 11:11:56;;;;;;;4.75;3.40;;;12.70;99.90;;;;;;5068625;28;20503;-72
2022/10/20 11:14:34;;;;;;;3.75;3.17;;;12.80;99.90;;;;;;5069079;28;20044;-72
2022/10/20 11:17:21;;;;;;;7.13;3.50;;;12.80;99.90;;;;;;5068726;28;20094;-72
2022/10/20 11:20:09;;;;;;;4.80;3.20;;;12.70;99.90;;;;;;5051948;28;20096;-72
2022/10/20 11:22:44;;;;;;;5.03;3.65;;;12.70;99.90;;;;;;5067859;28;20484;-72
2022/10/20 11:25:15;;;;;;;5.28;3.88;;;12.70;99.90;;;;;;5068483;28;20544;-73
2022/10/20 11:27:41;;;;;;;4.95;3.83;;;12.70;99.90;;;;;;5068729;28;20070;-73
2022/10/20 11:30:20;;;;;;;3.85;3.05;;;12.80;99.90;;;;;;5068937;28;20049;-73
2022/10/20 11:32:57;;;;;;;3.42;2.83;;;12.70;99.90;;;;;;5068665;28;20053;-73
2022/10/20 11:35:43;;;;;;;3.90;3.10;;;12.80;99.90;;;;;;5051613;28;20086;-72
2022/10/20 11:38:24;;;;;;;3.63;2.90;;;12.80;99.90;;;;;;5072191;28;20418;-72
2022/10/20 11:41:16;;;;;;;2.97;2.40;;;12.90;99.90;;;;;;5072319;28;20086;-73
2022/10/20 11:44:20;;;;;;;5.18;2.58;;;12.90;99.90;;;;;;5068087;28;20082;-72
2022/10/20 11:47:10;;;;;;;3.20;2.42;;;12.90;99.90;;;;;;5071720;28;20152;-73
2022/10/20 11:49:39;;;;;;;2.50;2.10;;;12.90;99.90;;;;;;5071417;28;20051;-73
2022/10/20 11:52:22;;;;;;;3.45;2.42;;;13.00;99.90;;;;;;5049544;28;20049;-73
2022/10/20 11:55:03;;;;;;;3.15;2.80;;;12.90;99.90;;;;;;5069072;28;20071;-72
2022/10/20 11:58:03;;;;;;;3.70;2.60;;;12.90;99.90;;;;;;5062393;28;20128;-73
2022/10/20 12:00:31;;;;;;;3.05;2.40;;;12.90;99.90;;;;;;5061027;28;20041;-72
2022/10/20 12:03:21;;;;;;;4.10;3.10;;;13.00;99.90;;;;;;5074658;28;20053;-73
2022/10/20 12:06:15;;;;;;;3.67;2.83;;;13.00;99.90;;;;;;5070326;28;20044;-73
2022/10/20 12:09:31;;;;;;;4.57;3.25;;;13.00;99.90;;;;;;5049711;28;20044;-73
2022/10/20 12:12:15;;;;;;;3.97;2.80;;;12.90;99.90;;;;;;5058782;28;20059;-73
2022/10/20 12:14:46;;;;;;;3.25;2.60;;;12.90;99.90;;;;;;5071818;28;20041;-73
2022/10/20 12:17:18;;;;;;;5.07;2.90;;;12.90;99.90;;;;;;5071231;28;20118;-73
2022/10/20 12:19:47;;;;;;;4.25;3.20;;;12.80;99.90;;;;;;5069560;28;20492;-73
2022/10/20 12:22:13;;;;;;;4.45;3.40;;;12.90;99.90;;;;;;5084766;28;20550;-73
2022/10/20 12:25:00;;;;;;;3.85;2.83;;;12.80;99.90;;;;;;5071716;28;20080;-74
2022/10/20 12:27:26;;;;;;;2.45;2.13;;;12.80;99.90;;;;;;5064021;28;20052;-72
2022/10/20 12:30:12;;;;;;;2.67;2.00;;;12.80;99.90;;;;;;5071800;28;20049;-72
2022/10/20 12:32:56;;;;;;;2.90;2.22;;;12.80;99.90;;;;;;5071587;28;20051;-72
2022/10/20 12:35:21;;;;;;;3.67;2.60;;;12.80;99.90;;;;;;5071386;28;20079;-72
2022/10/20 12:37:54;;;;;;;4.93;2.92;;;12.80;99.90;;;;;;5071591;28;20087;-73
2022/10/20 12:40:42;;;;;;;3.60;2.67;;;12.80;99.90;;;;;;5070417;28;20032;-72
2022/10/20 12:43:33;;;;;;;3.05;2.60;;;12.80;99.90;;;;;;5057434;28;20048;-73
2022/10/20 12:46:06;;;;;;;4.10;2.40;;;12.70;99.90;;;;;;5086026;28;20032;-73
2022/10/20 12:48:34;;;;;;;2.70;2.30;;;12.60;99.90;;;;;;5070843;28;20150;-72
2022/10/20 12:51:07;;;;;;;2.75;2.22;;;12.70;99.90;;;;;;5071196;28;20044;-72
2022/10/20 12:53:33;;;;;;;3.00;2.70;;;12.60;99.90;;;;;;5071356;28;20055;-72
2022/10/20 12:55:59;;;;;;;3.47;2.40;;;12.50;99.90;;;;;;5070804;28;20607;-72
2022/10/20 12:58:28;;;;;;;3.38;2.25;;;12.50;99.90;;;;;;5070661;28;20134;-72
2022/10/20 13:00:55;;;;;;;2.70;2.40;;;12.50;99.90;;;;;;5071098;28;20040;-72
2022/10/20 13:03:38;;;;;;;3.00;2.03;;;12.40;99.90;;;;;;5070626;28;20134;-72
2022/10/20 13:06:36;;;;;;;2.85;2.00;;;12.40;99.90;;;;;;5066785;28;20072;-73
2022/10/20 13:09:02;;;;;;;2.10;1.50;;;12.30;99.90;;;;;;5044910;28;20499;-73
2022/10/20 13:11:37;;;;;;;2.20;1.98;;;12.30;99.90;;;;;;5070276;28;20155;-73
2022/10/20 13:14:11;;;;;;;2.45;2.20;;;12.20;99.90;;;;;;5071221;28;20066;-73
2022/10/20 13:16:56;;;;;;;2.40;1.90;;;12.20;99.90;;;;;;5070711;28;20379;-73
2022/10/20 13:19:28;;;;;;;3.50;2.65;;;12.10;99.90;;;;;;5070598;28;20045;-72